Time;durP1;ratioP1;P1;durP2;ratioP2;P2;SDS_P1;SDS_P2;PMS_P1;PMS_P2;Temp;Humidity;BMP_temperature;BMP_pressure;BME280_temperature;BME280_humidity;BME280_pressure;Samples;Min_cycle;Max_cycle;Signal;HPM_P1;HPM_P2
2022/10/10 04:44:47;;;;;;;10.78;3.42;;;;;;;9.65;100.00;100624.97;1697480;82;21811;-38
2022/10/10 04:47:14;;;;;;;12.25;3.52;;;;;;;9.63;100.00;100622.78;1675709;84;21132;-45
2022/10/10 04:49:40;;;;;;;3.33;3.02;;;;;;;9.63;100.00;100629.31;1683209;83;20998;-45
2022/10/10 04:52:09;;;;;;;6.78;3.42;;;;;;;9.63;100.00;100627.14;1683844;83;21552;-38
2022/10/10 04:54:35;;;;;;;3.70;2.50;;;;;;;9.62;100.00;100634.50;1683790;83;21050;-46
2022/10/10 04:57:02;;;;;;;6.10;2.45;;;;;;;9.60;100.00;100630.58;1688014;84;21020;-39
2022/10/10 04:59:29;;;;;;;4.12;3.02;;;;;;;9.59;100.00;100637.55;1672535;83;21002;-39
2022/10/10 05:01:55;;;;;;;3.10;2.20;;;;;;;9.63;100.00;100631.05;1683151;83;21037;-46
2022/10/10 05:04:21;;;;;;;6.30;2.77;;;;;;;9.68;100.00;100635.42;1675214;84;21076;-39
2022/10/10 05:06:49;;;;;;;4.15;2.30;;;;;;;9.71;100.00;100634.59;1685467;84;21597;-39
2022/10/10 05:09:16;;;;;;;3.62;1.98;;;;;;;9.73;100.00;100631.55;1659185;86;21046;-46
2022/10/10 05:11:42;;;;;;;5.28;2.83;;;;;;;9.75;100.00;100644.22;1658566;85;21037;-45
2022/10/10 05:14:09;;;;;;;4.87;2.17;;;;;;;9.78;100.00;100642.92;1663205;84;20998;-46
2022/10/10 05:16:37;;;;;;;4.20;2.02;;;;;;;9.80;100.00;100638.61;1651672;85;21731;-46
2022/10/10 05:19:04;;;;;;;3.72;1.90;;;;;;;9.81;100.00;100644.28;1660098;85;21488;-46
2022/10/10 05:21:31;;;;;;;4.85;2.72;;;;;;;9.82;100.00;100648.20;1675755;84;21020;-39
2022/10/10 05:23:57;;;;;;;4.37;2.08;;;;;;;9.83;100.00;100650.37;1677173;84;21069;-39
2022/10/10 05:26:25;;;;;;;5.33;2.42;;;;;;;9.83;99.96;100651.69;1676875;84;21030;-38
2022/10/10 05:28:54;;;;;;;3.98;2.05;;;;;;;9.81;100.00;100654.30;1672638;84;20996;-39
2022/10/10 05:31:21;;;;;;;3.95;2.08;;;;;;;9.80;99.64;100659.08;1669492;84;21557;-39
2022/10/10 05:33:47;;;;;;;4.95;1.95;;;;;;;9.80;99.80;100660.83;1673465;84;21502;-45
2022/10/10 05:36:14;;;;;;;2.47;1.62;;;;;;;9.78;98.82;100655.56;1678106;83;21582;-46
2022/10/10 05:38:41;;;;;;;3.58;1.98;;;;;;;9.76;98.34;100656.42;1673413;85;21011;-39
2022/10/10 05:41:08;;;;;;;4.53;2.00;;;;;;;9.76;98.81;100666.88;1662258;84;21494;-46
2022/10/10 05:43:34;;;;;;;2.98;1.95;;;;;;;9.77;99.08;100667.31;1657302;85;21014;-45
2022/10/10 05:46:01;;;;;;;5.10;2.00;;;;;;;9.79;98.85;100663.84;1680201;83;21117;-45
2022/10/10 05:48:28;;;;;;;3.75;1.80;;;;;;;9.81;98.91;100663.87;1682180;84;21041;-38
2022/10/10 05:50:55;;;;;;;3.95;1.77;;;;;;;9.83;98.93;100675.20;1676076;84;21053;-38
2022/10/10 05:53:23;;;;;;;9.03;2.12;;;;;;;9.84;98.54;100675.21;1689773;84;21470;-45
2022/10/10 05:55:49;;;;;;;4.80;1.47;;;;;;;9.84;98.39;100672.59;1678299;84;21585;-45
2022/10/10 05:58:16;;;;;;;6.62;1.90;;;;;;;9.87;98.40;100670.46;1684168;84;21019;-39
2022/10/10 06:00:44;;;;;;;6.60;1.60;;;;;;;9.88;98.15;100673.52;1687808;83;21057;-39
2022/10/10 06:03:13;;;;;;;4.37;1.92;;;;;;;9.91;98.16;100677.44;1691817;84;20991;-46
2022/10/10 06:05:40;;;;;;;8.40;2.10;;;;;;;9.94;97.75;100672.69;1683372;83;21100;-46
2022/10/10 06:08:07;;;;;;;4.83;1.80;;;;;;;9.95;97.64;100675.31;1696165;84;20983;-39
2022/10/10 06:10:36;;;;;;;4.00;1.70;;;;;;;9.98;97.77;100678.40;1691237;84;21036;-38
2022/10/10 06:13:03;;;;;;;4.50;1.80;;;;;;;10.02;97.29;100684.08;1677255;84;21435;-39
2022/10/10 06:15:31;;;;;;;7.08;1.70;;;;;;;10.05;97.23;100679.77;1671995;84;21484;-46
2022/10/10 06:17:59;;;;;;;8.88;2.00;;;;;;;10.07;97.23;100681.94;1680301;84;21047;-38
2022/10/10 06:20:25;;;;;;;6.97;2.40;;;;;;;10.11;96.52;100680.24;1681634;84;21094;-38
2022/10/10 06:22:52;;;;;;;5.87;1.70;;;;;;;10.16;96.89;100686.39;1685051;84;21102;-45
2022/10/10 06:25:18;;;;;;;4.45;1.92;;;;;;;10.21;95.73;100688.61;1684239;84;21070;-45
2022/10/10 06:27:45;;;;;;;3.42;1.55;;;;;;;10.25;95.52;100685.16;1677873;84;21358;-46
2022/10/10 06:30:12;;;;;;;3.87;1.82;;;;;;;10.28;95.49;100679.10;1684239;84;21010;-40
2022/10/10 06:32:38;;;;;;;5.45;1.90;;;;;;;10.35;95.40;100684.81;1686593;84;21003;-45
2022/10/10 06:35:07;;;;;;;3.30;1.70;;;;;;;10.40;94.61;100681.80;1680399;84;21003;-45
2022/10/10 06:37:35;;;;;;;7.47;1.95;;;;;;;10.42;94.63;100685.29;1679270;84;21010;-38
2022/10/10 06:40:01;;;;;;;4.40;1.92;;;;;;;10.41;93.79;100687.91;1682129;84;20974;-39
2022/10/10 06:42:27;;;;;;;10.45;1.90;;;;;;;10.41;94.62;100697.92;1694816;84;20994;-45
2022/10/10 06:44:56;;;;;;;4.33;1.95;;;;;;;10.42;93.93;100690.52;1681119;84;21011;-39
2022/10/10 06:47:22;;;;;;;5.95;1.87;;;;;;;10.44;93.74;100693.17;1679204;84;21101;-39
2022/10/10 06:49:49;;;;;;;4.50;2.10;;;;;;;10.44;93.04;100690.12;1679647;84;21003;-45
2022/10/10 06:52:16;;;;;;;7.78;1.90;;;;;;;10.46;92.22;100699.27;1679462;84;21576;-46
2022/10/10 06:54:42;;;;;;;3.12;1.67;;;;;;;10.50;92.39;100684.92;1679915;85;20980;-46
2022/10/10 06:57:09;;;;;;;4.03;1.72;;;;;;;10.56;92.14;100684.96;1690822;84;21046;-45
2022/10/10 06:59:35;;;;;;;4.67;1.47;;;;;;;10.60;90.83;100686.70;1679820;84;21577;-46
2022/10/10 07:02:02;;;;;;;4.45;1.57;;;;;;;10.60;90.80;100683.22;1675441;84;21585;-39
2022/10/10 07:04:29;;;;;;;4.47;1.60;;;;;;;10.58;90.10;100685.84;1693233;84;21482;-44
2022/10/10 07:06:55;;;;;;;4.28;1.60;;;;;;;10.56;90.09;100684.09;1686906;83;21406;-45
2022/10/10 07:09:22;;;;;;;5.22;1.70;;;;;;;10.57;89.57;100682.78;1688554;84;20998;-39
2022/10/10 07:11:49;;;;;;;4.05;1.67;;;;;;;10.60;89.17;100690.63;1688532;83;21599;-39
2022/10/10 07:14:16;;;;;;;5.47;1.47;;;;;;;10.63;88.61;100684.56;1676034;84;21551;-46
2022/10/10 07:16:43;;;;;;;2.70;1.45;;;;;;;10.64;88.76;100694.16;1674906;84;21099;-45
2022/10/10 07:19:09;;;;;;;9.15;1.87;;;;;;;10.63;88.64;100693.28;1682214;84;21511;-46
2022/10/10 07:21:36;;;;;;;5.87;1.62;;;;;;;10.62;87.81;100692.84;1696407;83;21093;-38
2022/10/10 07:24:03;;;;;;;2.62;1.37;;;;;;;10.58;88.11;100696.30;1696832;84;20990;-38
2022/10/10 07:26:35;;;;;;;5.15;1.90;;;;;;;10.59;87.68;100698.05;1696197;83;21471;-38
2022/10/10 07:28:58;;;;;;;6.17;1.67;;;;;;;10.61;87.47;100693.72;1690544;84;21010;-46
2022/10/10 07:31:25;;;;;;;4.87;1.60;;;;;;;10.62;86.96;100690.67;1680409;83;21598;-39
2022/10/10 07:33:51;;;;;;;2.55;1.27;;;;;;;10.61;86.62;100688.48;1680585;84;21413;-45
2022/10/10 07:36:18;;;;;;;3.80;1.50;;;;;;;10.63;87.32;100693.72;1679944;84;21043;-44
2022/10/10 07:38:50;;;;;;;6.62;1.85;;;;;;;10.65;87.42;100690.23;1686305;84;21602;-39
2022/10/10 07:41:18;;;;;;;3.35;1.65;;;;;;;10.70;87.03;100686.34;1675076;84;21036;-40
2022/10/10 07:43:45;;;;;;;5.75;1.40;;;;;;;10.76;87.17;100686.81;1689168;84;20991;-39
2022/10/10 07:46:16;;;;;;;4.40;1.37;;;;;;;10.81;86.83;100687.28;1676466;84;21125;-45
2022/10/10 07:48:43;;;;;;;4.08;1.50;;;;;;;10.91;86.25;100682.97;1684639;85;20983;-46
2022/10/10 07:51:10;;;;;;;7.22;2.20;;;;;;;11.01;84.42;100687.80;1684093;84;21065;-45
2022/10/10 07:53:37;;;;;;;7.08;1.50;;;;;;;11.02;83.98;100685.20;1687174;84;21474;-46
2022/10/10 07:56:06;;;;;;;4.80;1.62;;;;;;;11.03;83.07;100680.84;1679125;84;21665;-45
2022/10/10 07:58:34;;;;;;;6.30;1.20;;;;;;;11.00;83.14;100684.30;1678900;85;21030;-39
2022/10/10 08:01:07;;;;;;;4.28;1.40;;;;;;;11.04;82.62;100674.73;1680699;84;21030;-46
